N59E KASE-KORL
Flight info
| Callsign | N59E |
|---|---|
| Flight time | N/A |
| Altitude | 45000 |
| Route | LINDZ1 LINDZ IDENE JNETT POWDR HGO TUL LIT MGM DAWWN MJKAL JAFAR3 |
| Aircraft | C750/M-SBDE3FGHRWXY/S |
Departure
| Time | 2026-05-04 14:22 |
|---|---|
| Airport | Aspen-Pitkin County Airport (Sardy Field) (KASE) |
Arrival
| Time | N/A |
|---|---|
| Airport | Orlando Executive Airport (KORL) |
| Time | Latitude | Longitude | Altitude | Speed | Heading |
|---|---|---|---|---|---|
| 2026-05-04 14:09 | 39.21889 | -106.86459 | 7797 ft | 0 kts | 70° |
| 2026-05-04 14:15 | 39.21889 | -106.86454 | 7797 ft | 0 kts | 105° |
| 2026-05-04 14:16 | 39.21878 | -106.86434 | 7798 ft | 0 kts | 155° |
| 2026-05-04 14:17 | 39.21859 | -106.86433 | 7799 ft | 1 kts | 200° |
| 2026-05-04 14:17 | 39.21850 | -106.86439 | 7800 ft | 1 kts | 215° |
| 2026-05-04 14:17 | 39.21815 | -106.86489 | 7804 ft | 5 kts | 228° |
| 2026-05-04 14:18 | 39.21786 | -106.86511 | 7807 ft | 4 kts | 178° |
| 2026-05-04 14:18 | 39.21714 | -106.86479 | 7813 ft | 6 kts | 159° |
| 2026-05-04 14:19 | 39.21605 | -106.86426 | 7821 ft | 10 kts | 159° |
| 2026-05-04 14:19 | 39.21527 | -106.86386 | 7825 ft | 13 kts | 158° |
| 2026-05-04 14:19 | 39.21435 | -106.86341 | 7831 ft | 15 kts | 161° |
| 2026-05-04 14:19 | 39.21329 | -106.86291 | 7838 ft | 17 kts | 157° |
| 2026-05-04 14:20 | 39.21208 | -106.86249 | 7843 ft | 17 kts | 204° |
| 2026-05-04 14:20 | 39.21198 | -106.86350 | 7848 ft | 11 kts | 333° |
| 2026-05-04 14:20 | 39.21218 | -106.86359 | 7847 ft | 0 kts | 340° |
| 2026-05-04 14:22 | 39.21263 | -106.86381 | 7845 ft | 35 kts | 339° |
| 2026-05-04 14:22 | 39.21820 | -106.86645 | 7806 ft | 130 kts | 340° |
| 2026-05-04 14:22 | 39.22900 | -106.87172 | 7844 ft | 190 kts | 338° |
| 2026-05-04 14:22 | 39.24121 | -106.87785 | 8588 ft | 198 kts | 344° |
| 2026-05-04 14:23 | 39.26958 | -106.88919 | 10600 ft | 222 kts | 313° |
| 2026-05-04 14:23 | 39.27598 | -106.90587 | 11889 ft | 213 kts | 282° |
| 2026-05-04 14:23 | 39.27918 | -106.92397 | 12997 ft | 208 kts | 281° |
| 2026-05-04 14:24 | 39.28228 | -106.94175 | 13965 ft | 208 kts | 281° |
| 2026-05-04 14:24 | 39.28550 | -106.95986 | 14753 ft | 217 kts | 281° |
| 2026-05-04 14:24 | 39.28905 | -106.97997 | 15292 ft | 240 kts | 281° |
| 2026-05-04 14:24 | 39.29287 | -107.00160 | 15827 ft | 262 kts | 281° |
| 2026-05-04 14:25 | 39.29864 | -107.02507 | 16246 ft | 287 kts | 299° |
| 2026-05-04 14:25 | 39.32541 | -107.06761 | 17266 ft | 329 kts | 309° |
| 2026-05-04 14:25 | 39.34098 | -107.08988 | 17889 ft | 344 kts | 310° |
| 2026-05-04 14:26 | 39.35714 | -107.11292 | 18617 ft | 353 kts | 310° |
| 2026-05-04 14:26 | 39.37626 | -107.13443 | 18881 ft | 379 kts | 328° |
| 2026-05-04 14:26 | 39.40200 | -107.14397 | 19421 ft | 398 kts | 353° |
| 2026-05-04 14:26 | 39.42961 | -107.13921 | 20160 ft | 412 kts | 16° |
| 2026-05-04 14:27 | 39.45451 | -107.12024 | 20959 ft | 422 kts | 40° |
| 2026-05-04 14:27 | 39.47234 | -107.08996 | 21658 ft | 430 kts | 63° |
| 2026-05-04 14:27 | 39.48048 | -107.05280 | 22276 ft | 438 kts | 85° |
| 2026-05-04 14:27 | 39.47737 | -107.01364 | 22944 ft | 440 kts | 108° |
| 2026-05-04 14:28 | 39.46350 | -106.97889 | 23583 ft | 439 kts | 130° |
| 2026-05-04 14:28 | 39.44348 | -106.94833 | 24119 ft | 446 kts | 128° |
| 2026-05-04 14:28 | 39.43111 | -106.91157 | 24591 ft | 460 kts | 103° |
| 2026-05-04 14:28 | 39.42886 | -106.87020 | 25111 ft | 467 kts | 90° |
| 2026-05-04 14:29 | 39.41242 | -106.78868 | 26061 ft | 478 kts | 102° |
| 2026-05-04 14:29 | 39.39667 | -106.70403 | 27000 ft | 490 kts | 104° |
| 2026-05-04 14:30 | 39.38816 | -106.66119 | 27502 ft | 495 kts | 105° |
| 2026-05-04 14:30 | 39.37962 | -106.61757 | 27908 ft | 502 kts | 105° |
| 2026-05-04 14:30 | 39.36215 | -106.52911 | 28770 ft | 513 kts | 104° |
| 2026-05-04 14:31 | 39.35562 | -106.48389 | 29213 ft | 519 kts | 97° |
| 2026-05-04 14:31 | 39.35435 | -106.39014 | 29976 ft | 528 kts | 82° |
| 2026-05-04 14:32 | 39.36090 | -106.29387 | 30697 ft | 538 kts | 85° |
| 2026-05-04 14:32 | 39.36314 | -106.24599 | 31064 ft | 542 kts | 86° |
| 2026-05-04 14:32 | 39.36539 | -106.19647 | 31408 ft | 547 kts | 85° |
| 2026-05-04 14:32 | 39.36756 | -106.14681 | 31880 ft | 548 kts | 85° |
| 2026-05-04 14:33 | 39.36969 | -106.09866 | 32320 ft | 549 kts | 85° |
| 2026-05-04 14:33 | 39.37197 | -106.04768 | 32749 ft | 552 kts | 85° |
| 2026-05-04 14:33 | 39.37413 | -105.99687 | 33156 ft | 554 kts | 85° |
| 2026-05-04 14:33 | 39.37626 | -105.94656 | 33559 ft | 557 kts | 85° |
| 2026-05-04 14:34 | 39.37846 | -105.89641 | 34011 ft | 558 kts | 85° |
| 2026-05-04 14:34 | 39.38055 | -105.84562 | 34587 ft | 557 kts | 85° |
| 2026-05-04 14:34 | 39.38268 | -105.79595 | 35143 ft | 556 kts | 85° |
| 2026-05-04 14:34 | 39.38468 | -105.74610 | 35755 ft | 554 kts | 85° |
| 2026-05-04 14:35 | 39.38679 | -105.69555 | 36378 ft | 551 kts | 85° |
| 2026-05-04 14:35 | 39.38871 | -105.64603 | 36883 ft | 551 kts | 85° |
| 2026-05-04 14:35 | 39.39075 | -105.59613 | 37349 ft | 552 kts | 85° |
| 2026-05-04 14:35 | 39.39198 | -105.54604 | 37843 ft | 552 kts | 90° |
| 2026-05-04 14:36 | 39.38919 | -105.49703 | 38320 ft | 551 kts | 98° |
| 2026-05-04 14:36 | 39.38245 | -105.44779 | 38783 ft | 549 kts | 103° |
| 2026-05-04 14:36 | 39.37239 | -105.40008 | 39212 ft | 547 kts | 111° |
| 2026-05-04 14:36 | 39.35852 | -105.35506 | 39680 ft | 543 kts | 117° |
| 2026-05-04 14:37 | 39.34378 | -105.30985 | 40141 ft | 544 kts | 116° |
| 2026-05-04 14:37 | 39.32960 | -105.26386 | 40681 ft | 541 kts | 115° |
| 2026-05-04 14:37 | 39.31576 | -105.21831 | 41171 ft | 539 kts | 114° |
| 2026-05-04 14:37 | 39.30206 | -105.17333 | 41592 ft | 539 kts | 114° |
| 2026-05-04 14:38 | 39.28856 | -105.12856 | 42009 ft | 538 kts | 114° |
| 2026-05-04 14:38 | 39.27480 | -105.08363 | 42423 ft | 537 kts | 114° |
| 2026-05-04 14:38 | 39.26104 | -105.03828 | 42704 ft | 537 kts | 114° |
| 2026-05-04 14:38 | 39.24745 | -104.99385 | 43102 ft | 534 kts | 114° |
| 2026-05-04 14:39 | 39.23370 | -104.94898 | 43438 ft | 533 kts | 114° |
| 2026-05-04 14:39 | 39.22017 | -104.90475 | 43717 ft | 533 kts | 114° |
| 2026-05-04 14:39 | 39.20647 | -104.86008 | 43979 ft | 533 kts | 113° |
| 2026-05-04 14:40 | 39.17900 | -104.77068 | 44592 ft | 531 kts | 114° |
| 2026-05-04 14:40 | 39.16544 | -104.72680 | 44900 ft | 529 kts | 113° |
| 2026-05-04 14:40 | 39.15165 | -104.68221 | 45062 ft | 531 kts | 113° |
| 2026-05-04 14:40 | 39.13807 | -104.63829 | 45086 ft | 534 kts | 112° |
| 2026-05-04 14:41 | 39.11024 | -104.54837 | 45042 ft | 538 kts | 113° |
| 2026-05-04 14:42 | 39.05392 | -104.36772 | 45060 ft | 547 kts | 112° |
| 2026-05-04 14:42 | 39.02543 | -104.27671 | 45062 ft | 550 kts | 114° |
| 2026-05-04 14:43 | 38.99650 | -104.18465 | 45070 ft | 553 kts | 114° |
| 2026-05-04 14:43 | 38.96751 | -104.09257 | 45039 ft | 557 kts | 113° |
| 2026-05-04 14:44 | 38.93816 | -103.99979 | 45027 ft | 560 kts | 114° |
| 2026-05-04 14:44 | 38.90830 | -103.90585 | 45012 ft | 564 kts | 113° |
| 2026-05-04 14:45 | 38.87862 | -103.81258 | 44996 ft | 567 kts | 113° |
| 2026-05-04 14:45 | 38.84844 | -103.71802 | 44994 ft | 569 kts | 113° |
| 2026-05-04 14:46 | 38.81814 | -103.62354 | 44991 ft | 572 kts | 113° |
| 2026-05-04 14:46 | 38.79015 | -103.52768 | 44982 ft | 574 kts | 111° |
| 2026-05-04 14:47 | 38.76202 | -103.43120 | 44973 ft | 576 kts | 111° |
| 2026-05-04 14:47 | 38.73376 | -103.33491 | 44964 ft | 578 kts | 112° |
| 2026-05-04 14:48 | 38.70520 | -103.23769 | 44961 ft | 578 kts | 112° |
| 2026-05-04 14:48 | 38.67668 | -103.14117 | 44942 ft | 579 kts | 111° |
| 2026-05-04 14:49 | 38.64806 | -103.04453 | 44919 ft | 580 kts | 111° |
| 2026-05-04 14:49 | 38.61934 | -102.94788 | 44916 ft | 581 kts | 112° |
| 2026-05-04 14:50 | 38.59037 | -102.85099 | 44908 ft | 581 kts | 111° |
| 2026-05-04 14:50 | 38.56139 | -102.75416 | 44910 ft | 581 kts | 112° |
| 2026-05-04 14:51 | 38.53230 | -102.65729 | 44904 ft | 581 kts | 111° |
| 2026-05-04 14:51 | 38.50315 | -102.56069 | 44897 ft | 582 kts | 111° |
| 2026-05-04 14:52 | 38.47378 | -102.46386 | 44894 ft | 582 kts | 111° |
| 2026-05-04 14:52 | 38.44445 | -102.36722 | 44891 ft | 583 kts | 112° |
| 2026-05-04 14:53 | 38.41503 | -102.27055 | 44879 ft | 580 kts | 112° |
| 2026-05-04 14:53 | 38.38559 | -102.17445 | 44881 ft | 577 kts | 112° |
| 2026-05-04 14:54 | 38.35634 | -102.07920 | 44888 ft | 575 kts | 112° |
| 2026-05-04 14:54 | 38.32689 | -101.98350 | 44881 ft | 573 kts | 112° |
| 2026-05-04 14:55 | 38.29757 | -101.88856 | 44870 ft | 573 kts | 112° |
| 2026-05-04 14:55 | 38.26804 | -101.79339 | 44871 ft | 572 kts | 112° |
| 2026-05-04 14:56 | 38.23872 | -101.69915 | 44860 ft | 572 kts | 112° |
| 2026-05-04 14:56 | 38.20917 | -101.60460 | 44864 ft | 572 kts | 112° |
| 2026-05-04 14:57 | 38.17958 | -101.51015 | 44864 ft | 572 kts | 111° |
| 2026-05-04 14:57 | 38.15010 | -101.41626 | 44865 ft | 572 kts | 112° |
| 2026-05-04 14:58 | 38.12029 | -101.32190 | 44841 ft | 573 kts | 112° |
| 2026-05-04 14:58 | 38.09058 | -101.22796 | 44818 ft | 573 kts | 112° |
| 2026-05-04 14:59 | 38.06069 | -101.13380 | 44837 ft | 572 kts | 112° |
| 2026-05-04 15:00 | 38.01570 | -100.99290 | 44815 ft | 573 kts | 112° |
| 2026-05-04 15:00 | 37.98569 | -100.89913 | 44800 ft | 573 kts | 112° |
| 2026-05-04 15:01 | 37.94046 | -100.75846 | 44750 ft | 573 kts | 112° |
| 2026-05-04 15:01 | 37.91024 | -100.66476 | 44754 ft | 573 kts | 112° |
| 2026-05-04 15:02 | 37.87987 | -100.57098 | 44775 ft | 572 kts | 112° |
| 2026-05-04 15:02 | 37.84952 | -100.47765 | 44789 ft | 571 kts | 113° |
| 2026-05-04 15:03 | 37.81892 | -100.38374 | 44813 ft | 570 kts | 112° |
| 2026-05-04 15:03 | 37.78836 | -100.29016 | 44792 ft | 570 kts | 114° |
| 2026-05-04 15:04 | 37.75790 | -100.19750 | 44799 ft | 569 kts | 113° |
| 2026-05-04 15:04 | 37.72744 | -100.10499 | 44788 ft | 568 kts | 113° |
| 2026-05-04 15:05 | 37.69688 | -100.01243 | 44771 ft | 568 kts | 113° |
| 2026-05-04 15:05 | 37.66626 | -99.91999 | 44779 ft | 567 kts | 113° |
| 2026-05-04 15:06 | 37.63581 | -99.82832 | 44788 ft | 566 kts | 113° |
| 2026-05-04 15:07 | 37.58968 | -99.69021 | 44795 ft | 566 kts | 114° |
| 2026-05-04 15:07 | 37.55912 | -99.59875 | 44786 ft | 566 kts | 113° |
| 2026-05-04 15:08 | 37.52823 | -99.50696 | 44783 ft | 567 kts | 112° |
| 2026-05-04 15:08 | 37.49748 | -99.41554 | 44780 ft | 567 kts | 114° |
| 2026-05-04 15:09 | 37.46652 | -99.32411 | 44774 ft | 567 kts | 113° |
| 2026-05-04 15:09 | 37.43535 | -99.23209 | 44771 ft | 566 kts | 113° |
| 2026-05-04 15:10 | 37.38894 | -99.09580 | 44776 ft | 565 kts | 114° |
| 2026-05-04 15:11 | 37.34219 | -98.95925 | 44762 ft | 565 kts | 114° |
| 2026-05-04 15:11 | 37.31099 | -98.86835 | 44756 ft | 564 kts | 114° |
| 2026-05-04 15:12 | 37.27966 | -98.77735 | 44752 ft | 564 kts | 114° |
| 2026-05-04 15:12 | 37.24833 | -98.68665 | 44765 ft | 564 kts | 114° |
| 2026-05-04 15:13 | 37.21701 | -98.59631 | 44751 ft | 564 kts | 114° |
| 2026-05-04 15:13 | 37.18541 | -98.50531 | 44754 ft | 564 kts | 114° |
| 2026-05-04 15:14 | 37.15384 | -98.41485 | 44770 ft | 564 kts | 113° |
| 2026-05-04 15:14 | 37.12220 | -98.32425 | 44753 ft | 564 kts | 114° |
| 2026-05-04 15:15 | 37.09054 | -98.23408 | 44758 ft | 563 kts | 114° |
| 2026-05-04 15:15 | 37.05892 | -98.14415 | 44755 ft | 563 kts | 114° |
| 2026-05-04 15:16 | 37.01127 | -98.00935 | 44763 ft | 561 kts | 114° |
| 2026-05-04 15:17 | 36.96364 | -97.87485 | 44769 ft | 561 kts | 114° |
| 2026-05-04 15:17 | 36.91567 | -97.74026 | 44774 ft | 561 kts | 114° |
| 2026-05-04 15:18 | 36.88364 | -97.65062 | 44764 ft | 562 kts | 114° |
| 2026-05-04 15:19 | 36.83544 | -97.51623 | 44789 ft | 562 kts | 115° |
| 2026-05-04 15:19 | 36.78720 | -97.38243 | 44808 ft | 562 kts | 115° |
| 2026-05-04 15:20 | 36.75497 | -97.29333 | 44793 ft | 562 kts | 115° |
| 2026-05-04 15:20 | 36.72263 | -97.20435 | 44779 ft | 561 kts | 115° |
| 2026-05-04 15:21 | 36.69046 | -97.11568 | 44793 ft | 561 kts | 115° |
| 2026-05-04 15:22 | 36.64180 | -96.98258 | 44800 ft | 561 kts | 115° |
| 2026-05-04 15:22 | 36.59302 | -96.84966 | 44777 ft | 560 kts | 115° |
| 2026-05-04 15:23 | 36.56052 | -96.76128 | 44777 ft | 560 kts | 115° |
| 2026-05-04 15:23 | 36.52795 | -96.67299 | 44801 ft | 560 kts | 115° |
| 2026-05-04 15:24 | 36.46261 | -96.49696 | 44814 ft | 560 kts | 114° |
| 2026-05-04 15:25 | 36.42997 | -96.40914 | 44810 ft | 560 kts | 115° |
| 2026-05-04 15:26 | 36.38070 | -96.27698 | 44814 ft | 560 kts | 116° |
| 2026-05-04 15:26 | 36.33124 | -96.14511 | 44814 ft | 559 kts | 116° |
| 2026-05-04 15:27 | 36.28155 | -96.01347 | 44826 ft | 558 kts | 115° |
| 2026-05-04 15:28 | 36.23214 | -95.88273 | 44839 ft | 557 kts | 116° |
| 2026-05-04 15:29 | 36.18301 | -95.75160 | 44853 ft | 558 kts | 114° |
| 2026-05-04 15:30 | 36.07150 | -95.44353 | 44860 ft | 559 kts | 115° |
| 2026-05-04 15:31 | 36.02345 | -95.31160 | 44849 ft | 560 kts | 115° |
| 2026-05-04 15:32 | 35.94307 | -95.09235 | 44870 ft | 558 kts | 115° |
| 2026-05-04 15:34 | 35.86206 | -94.87301 | 44894 ft | 558 kts | 115° |
| 2026-05-04 15:34 | 35.81370 | -94.74258 | 44893 ft | 558 kts | 115° |
| 2026-05-04 15:35 | 35.76485 | -94.61165 | 44915 ft | 558 kts | 115° |
| 2026-05-04 15:36 | 35.71592 | -94.48092 | 44930 ft | 558 kts | 115° |
| 2026-05-04 15:36 | 35.68333 | -94.39410 | 44935 ft | 559 kts | 115° |
| 2026-05-04 15:37 | 35.65055 | -94.30711 | 44915 ft | 559 kts | 116° |
| 2026-05-04 15:37 | 35.61766 | -94.22015 | 44914 ft | 558 kts | 115° |
| 2026-05-04 15:38 | 35.58491 | -94.13361 | 44917 ft | 558 kts | 115° |
| 2026-05-04 15:38 | 35.55189 | -94.04673 | 44913 ft | 558 kts | 115° |
| 2026-05-04 15:39 | 35.51910 | -93.96036 | 44924 ft | 557 kts | 115° |
| 2026-05-04 15:40 | 35.46950 | -93.83063 | 44915 ft | 557 kts | 115° |
| 2026-05-04 15:40 | 35.43625 | -93.74395 | 44939 ft | 557 kts | 115° |
| 2026-05-04 15:41 | 35.40328 | -93.65811 | 44941 ft | 558 kts | 115° |
| 2026-05-04 15:41 | 35.37001 | -93.57187 | 44937 ft | 558 kts | 115° |
| 2026-05-04 15:42 | 35.33664 | -93.48553 | 44944 ft | 558 kts | 115° |
| 2026-05-04 15:42 | 35.30324 | -93.39923 | 44945 ft | 559 kts | 115° |
| 2026-05-04 15:43 | 35.26978 | -93.31313 | 44944 ft | 559 kts | 116° |
| 2026-05-04 15:43 | 35.23609 | -93.22673 | 44935 ft | 559 kts | 116° |
| 2026-05-04 15:44 | 35.20261 | -93.14087 | 44958 ft | 558 kts | 116° |
| 2026-05-04 15:44 | 35.16900 | -93.05506 | 44947 ft | 557 kts | 116° |
| 2026-05-04 15:45 | 35.13517 | -92.96897 | 44967 ft | 557 kts | 116° |
| 2026-05-04 15:45 | 35.10135 | -92.88303 | 44967 ft | 558 kts | 116° |
| 2026-05-04 15:46 | 35.06779 | -92.79790 | 44964 ft | 558 kts | 116° |
| 2026-05-04 15:46 | 35.03378 | -92.71206 | 44981 ft | 557 kts | 116° |
| 2026-05-04 15:46 | 35.01759 | -92.67110 | 46366 ft | 524 kts | 116° |
| 2026-05-04 15:47 | 35.00115 | -92.62971 | 44012 ft | 577 kts | 116° |
| 2026-05-04 15:47 | 34.96618 | -92.54180 | 44283 ft | 570 kts | 116° |
| 2026-05-04 15:47 | 34.94883 | -92.49831 | 44484 ft | 565 kts | 115° |
| 2026-05-04 15:48 | 34.93166 | -92.45513 | 44703 ft | 561 kts | 116° |
| 2026-05-04 15:48 | 34.91460 | -92.41244 | 44917 ft | 556 kts | 116° |
| 2026-05-04 15:48 | 34.88077 | -92.32804 | 44998 ft | 556 kts | 116° |
| 2026-05-04 15:49 | 34.84649 | -92.24264 | 44971 ft | 556 kts | 117° |
| 2026-05-04 15:49 | 34.81265 | -92.15846 | 44981 ft | 556 kts | 116° |
| 2026-05-04 15:50 | 34.77806 | -92.07372 | 44989 ft | 556 kts | 117° |
| 2026-05-04 15:50 | 34.74362 | -91.98942 | 44971 ft | 556 kts | 117° |
| 2026-05-04 15:51 | 34.70893 | -91.90478 | 44977 ft | 556 kts | 117° |
| 2026-05-04 15:51 | 34.67434 | -91.82050 | 44990 ft | 556 kts | 117° |
| 2026-05-04 15:52 | 34.63969 | -91.73655 | 44995 ft | 556 kts | 116° |
| 2026-05-04 15:52 | 34.60495 | -91.65234 | 45003 ft | 556 kts | 117° |
| 2026-05-04 15:53 | 34.56988 | -91.56757 | 45012 ft | 557 kts | 117° |
| 2026-05-04 15:53 | 34.53487 | -91.48336 | 45009 ft | 558 kts | 116° |
| 2026-05-04 15:54 | 34.49996 | -91.39929 | 45020 ft | 558 kts | 117° |
| 2026-05-04 15:54 | 34.46467 | -91.31480 | 45010 ft | 559 kts | 117° |
| 2026-05-04 15:55 | 34.42944 | -91.23045 | 44996 ft | 559 kts | 117° |
| 2026-05-04 15:55 | 34.39411 | -91.14611 | 45006 ft | 559 kts | 117° |
| 2026-05-04 15:56 | 34.35867 | -91.06188 | 45009 ft | 559 kts | 117° |
| 2026-05-04 15:56 | 34.32331 | -90.97788 | 45024 ft | 559 kts | 117° |
| 2026-05-04 15:57 | 34.28791 | -90.89405 | 45028 ft | 559 kts | 117° |
| 2026-05-04 15:57 | 34.25225 | -90.80986 | 45021 ft | 559 kts | 117° |
| 2026-05-04 15:58 | 34.21674 | -90.72613 | 45040 ft | 560 kts | 117° |
| 2026-05-04 15:58 | 34.18085 | -90.64188 | 45032 ft | 560 kts | 117° |
| 2026-05-04 15:59 | 34.14510 | -90.55802 | 45026 ft | 561 kts | 117° |
| 2026-05-04 15:59 | 34.10913 | -90.47384 | 45046 ft | 561 kts | 118° |
| 2026-05-04 16:00 | 34.07307 | -90.38964 | 45034 ft | 562 kts | 117° |
| 2026-05-04 16:00 | 34.03696 | -90.30557 | 45029 ft | 562 kts | 118° |
| 2026-05-04 16:01 | 34.00085 | -90.22179 | 45038 ft | 562 kts | 118° |
| 2026-05-04 16:01 | 33.96458 | -90.13779 | 45055 ft | 562 kts | 118° |
| 2026-05-04 16:02 | 33.92854 | -90.05454 | 45054 ft | 562 kts | 118° |
| 2026-05-04 16:03 | 33.87345 | -89.92756 | 45059 ft | 562 kts | 118° |
| 2026-05-04 16:03 | 33.83716 | -89.84410 | 45051 ft | 561 kts | 118° |
| 2026-05-04 16:04 | 33.80066 | -89.76054 | 45061 ft | 561 kts | 118° |
| 2026-05-04 16:04 | 33.74591 | -89.63552 | 45055 ft | 561 kts | 118° |
| 2026-05-04 16:05 | 33.70970 | -89.55293 | 45075 ft | 561 kts | 119° |
| 2026-05-04 16:06 | 33.65465 | -89.42796 | 45071 ft | 561 kts | 118° |
| 2026-05-04 16:07 | 33.58116 | -89.26174 | 45067 ft | 561 kts | 120° |
| 2026-05-04 16:08 | 33.50755 | -89.09596 | 45068 ft | 561 kts | 120° |
| 2026-05-04 16:09 | 33.41531 | -88.88953 | 45075 ft | 560 kts | 120° |
| 2026-05-04 16:10 | 33.34124 | -88.72453 | 45073 ft | 561 kts | 120° |
| 2026-05-04 16:11 | 33.26692 | -88.55975 | 45085 ft | 561 kts | 120° |
| 2026-05-04 16:12 | 33.15470 | -88.31236 | 45074 ft | 563 kts | 120° |
| 2026-05-04 16:13 | 33.07956 | -88.14771 | 45062 ft | 562 kts | 120° |
| 2026-05-04 16:14 | 33.00438 | -87.98364 | 45081 ft | 562 kts | 121° |
| 2026-05-04 16:16 | 32.90993 | -87.77857 | 45065 ft | 564 kts | 121° |
| 2026-05-04 16:17 | 32.81482 | -87.57334 | 45095 ft | 564 kts | 121° |
| 2026-05-04 16:18 | 32.73843 | -87.40929 | 45088 ft | 565 kts | 121° |
| 2026-05-04 16:19 | 32.64249 | -87.20438 | 45076 ft | 566 kts | 121° |
| 2026-05-04 16:20 | 32.54631 | -86.99999 | 45082 ft | 565 kts | 122° |
| 2026-05-04 16:22 | 32.44956 | -86.79568 | 45076 ft | 564 kts | 121° |
| 2026-05-04 16:23 | 32.33344 | -86.55184 | 45093 ft | 564 kts | 122° |
| 2026-05-04 16:25 | 32.21680 | -86.30778 | 45081 ft | 567 kts | 120° |
| 2026-05-04 16:26 | 32.09271 | -86.01582 | 45098 ft | 567 kts | 119° |
| 2026-05-04 16:28 | 32.00338 | -85.80775 | 45110 ft | 567 kts | 119° |
| 2026-05-04 16:29 | 31.87713 | -85.51574 | 45107 ft | 569 kts | 119° |
| 2026-05-04 16:31 | 31.78651 | -85.30743 | 45091 ft | 571 kts | 120° |
| 2026-05-04 16:32 | 31.67735 | -85.05828 | 45097 ft | 570 kts | 120° |
| 2026-05-04 16:33 | 31.60423 | -84.89223 | 45096 ft | 569 kts | 120° |
| 2026-05-04 16:34 | 31.54939 | -84.76826 | 45101 ft | 569 kts | 120° |
| 2026-05-04 16:35 | 31.43911 | -84.51994 | 45103 ft | 570 kts | 120° |
| 2026-05-04 16:36 | 31.38375 | -84.39568 | 45114 ft | 571 kts | 120° |
| 2026-05-04 16:37 | 31.32837 | -84.27193 | 45107 ft | 570 kts | 121° |
| 2026-05-04 16:38 | 31.25447 | -84.10740 | 45107 ft | 569 kts | 121° |
| 2026-05-04 16:39 | 31.16189 | -83.90222 | 45116 ft | 569 kts | 121° |
| 2026-05-04 16:40 | 31.08736 | -83.73795 | 45111 ft | 569 kts | 121° |
| 2026-05-04 16:41 | 30.99417 | -83.53342 | 45112 ft | 571 kts | 122° |
| 2026-05-04 16:43 | 30.90010 | -83.32821 | 45108 ft | 571 kts | 122° |
| 2026-05-04 16:43 | 30.84394 | -83.20615 | 45096 ft | 569 kts | 122° |
| 2026-05-04 16:44 | 30.75555 | -83.05701 | 45119 ft | 547 kts | 145° |
| 2026-05-04 16:45 | 30.69834 | -82.99815 | 45093 ft | 547 kts | 145° |
| 2026-05-04 16:46 | 30.55499 | -82.85079 | 45101 ft | 547 kts | 145° |
| 2026-05-04 16:47 | 30.44063 | -82.73364 | 45102 ft | 547 kts | 145° |
| 2026-05-04 16:48 | 30.32536 | -82.61597 | 45104 ft | 546 kts | 145° |
| 2026-05-04 16:49 | 30.21040 | -82.49899 | 45114 ft | 546 kts | 145° |
| 2026-05-04 16:50 | 30.08949 | -82.39780 | 45151 ft | 511 kts | 172° |